Time;durP1;ratioP1;P1;durP2;ratioP2;P2;SDS_P1;SDS_P2;PMS_P1;PMS_P2;Temp;Humidity;BMP_temperature;BMP_pressure;BME280_temperature;BME280_humidity;BME280_pressure;Samples;Min_cycle;Max_cycle;Signal;HPM_P1;HPM_P2
2021/05/07 00:00:56;;;;;;;22.57;15.30;;;;;;;8.47;64.01;99155.84;3549130;40;20038;-62
2021/05/07 00:03:23;;;;;;;23.67;15.82;;;;;;;8.51;64.22;99161.78;3549242;40;20322;-63
2021/05/07 00:05:54;;;;;;;24.33;15.27;;;;;;;8.58;63.88;99157.97;3539601;40;20030;-64
2021/05/07 00:08:25;;;;;;;22.63;15.35;;;;;;;8.67;63.80;99154.06;3549326;40;20070;-65
2021/05/07 00:10:52;;;;;;;26.55;14.10;;;;;;;8.71;63.55;99150.38;3549107;40;20041;-64
2021/05/07 00:13:19;;;;;;;17.80;13.18;;;;;;;8.85;63.48;99140.97;3548997;40;20061;-62
2021/05/07 00:15:45;;;;;;;19.45;13.32;;;;;;;8.89;63.35;99135.56;3549340;40;20089;-62
2021/05/07 00:18:12;;;;;;;20.77;13.88;;;;;;;8.82;63.71;99122.81;3546378;40;20046;-64
2021/05/07 00:20:39;;;;;;;19.70;14.00;;;;;;;8.82;63.76;99122.81;3542400;40;20054;-64
2021/05/07 00:23:06;;;;;;;20.88;13.77;;;;;;;8.85;63.72;99116.59;3543870;40;20361;-62
2021/05/07 00:25:34;;;;;;;22.92;14.60;;;;;;;8.81;64.06;99115.91;3533978;40;20427;-63
2021/05/07 00:28:13;;;;;;;20.85;13.10;;;;;;;8.86;63.81;99107.81;3549538;40;20038;-63
2021/05/07 00:30:41;;;;;;;19.27;12.88;;;;;;;8.87;63.59;99101.69;3550666;40;20034;-63
2021/05/07 00:33:09;;;;;;;20.80;14.98;;;;;;;8.85;64.07;99101.75;3543835;40;20053;-62
2021/05/07 00:35:36;;;;;;;22.00;13.55;;;;;;;8.86;64.20;99100.84;3545813;40;20046;-63
2021/05/07 00:38:04;;;;;;;21.08;13.30;;;;;;;8.89;64.06;99097.22;3546525;40;20066;-62
2021/05/07 00:40:32;;;;;;;20.85;12.43;;;;;;;8.88;63.91;99098.13;3545564;40;20102;-63
2021/05/07 00:43:00;;;;;;;18.33;12.63;;;;;;;8.95;63.96;99093.44;3548299;40;20423;-62
2021/05/07 00:45:27;;;;;;;17.13;11.50;;;;;;;9.02;63.60;99094.84;3548550;40;20039;-63
2021/05/07 00:47:58;;;;;;;15.73;12.02;;;;;;;9.02;63.79;99094.84;3548194;40;20046;-63
2021/05/07 00:50:27;;;;;;;16.27;10.98;;;;;;;9.06;63.63;99099.84;3539580;40;20039;-62
2021/05/07 00:52:55;;;;;;;17.67;11.32;;;;;;;9.09;63.38;99091.84;3548059;40;20101;-63
2021/05/07 00:55:22;;;;;;;16.20;11.95;;;;;;;9.11;63.20;99087.38;3548186;40;20045;-62
2021/05/07 00:57:49;;;;;;;19.85;11.93;;;;;;;9.18;63.10;99090.53;3545002;40;20070;-63
2021/05/07 01:00:18;;;;;;;14.82;11.20;;;;;;;9.21;63.03;99090.38;3541916;40;20042;-62
2021/05/07 01:02:45;;;;;;;19.83;11.35;;;;;;;9.23;62.81;99085.06;3540781;40;20050;-62
2021/05/07 01:05:12;;;;;;;16.42;11.45;;;;;;;9.15;63.35;99086.28;3538107;40;20037;-62
2021/05/07 01:07:40;;;;;;;17.70;11.65;;;;;;;9.13;63.44;99077.69;3538899;40;20035;-62
2021/05/07 01:10:10;;;;;;;18.77;13.45;;;;;;;9.08;63.78;99071.00;3538613;40;20121;-61
2021/05/07 01:12:39;;;;;;;17.75;12.45;;;;;;;9.03;64.00;99075.63;3538980;40;20034;-61
2021/05/07 01:15:09;;;;;;;21.63;12.63;;;;;;;8.82;64.38;99067.94;3538676;40;20043;-61
2021/05/07 01:17:38;;;;;;;24.70;15.63;;;;;;;8.71;64.77;99064.16;3538565;40;20392;-62
2021/05/07 01:20:10;;;;;;;28.33;16.65;;;;;;;8.60;64.90;99063.84;3538038;40;20047;-61
2021/05/07 01:22:38;;;;;;;30.17;15.52;;;;;;;8.56;65.15;99060.56;3538933;40;20035;-62
2021/05/07 01:25:07;;;;;;;20.50;13.68;;;;;;;8.54;65.07;99062.41;3538532;40;20400;-61
2021/05/07 01:27:37;;;;;;;21.23;13.70;;;;;;;8.45;65.33;99058.44;3538364;40;20472;-62
2021/05/07 01:30:23;;;;;;;18.35;12.20;;;;;;;8.42;65.53;99057.75;3539119;40;20035;-62
2021/05/07 01:32:51;;;;;;;19.17;12.60;;;;;;;8.37;65.51;99051.91;3537950;40;20549;-63
2021/05/07 01:35:21;;;;;;;18.55;12.43;;;;;;;8.30;65.94;99047.84;3538529;40;20403;-62
2021/05/07 01:37:49;;;;;;;18.42;12.95;;;;;;;8.24;66.26;99047.22;3533757;40;20042;-62
2021/05/07 01:40:19;;;;;;;18.98;12.82;;;;;;;8.20;66.29;99048.31;3536343;40;20463;-62
2021/05/07 01:42:47;;;;;;;18.38;12.18;;;;;;;8.23;66.18;99042.94;3535666;40;20033;-63
2021/05/07 01:45:16;;;;;;;16.63;11.73;;;;;;;8.26;65.76;99036.72;3538500;40;20031;-62
2021/05/07 01:47:44;;;;;;;16.83;12.10;;;;;;;8.29;65.62;99035.72;3538120;40;20323;-62
2021/05/07 01:50:14;;;;;;;15.85;12.20;;;;;;;8.30;65.65;99032.19;3538451;40;20043;-62
2021/05/07 01:52:42;;;;;;;20.15;13.00;;;;;;;8.27;65.61;99028.81;3529550;40;20059;-62
2021/05/07 01:55:11;;;;;;;17.08;11.70;;;;;;;8.23;65.75;99027.28;3538550;40;20038;-62
2021/05/07 01:57:39;;;;;;;16.88;11.75;;;;;;;8.25;65.70;99024.59;3538084;40;20395;-62
2021/05/07 02:00:10;;;;;;;19.55;12.55;;;;;;;8.25;65.66;99024.59;3538198;40;20145;-63
2021/05/07 02:02:37;;;;;;;19.70;13.57;;;;;;;8.19;66.21;99015.28;3538509;40;20380;-63
2021/05/07 02:05:04;;;;;;;22.05;13.70;;;;;;;8.17;66.28;99006.69;3538406;40;20038;-62
2021/05/07 02:07:31;;;;;;;23.75;14.27;;;;;;;8.29;66.01;99000.00;3529140;40;20079;-63
2021/05/07 02:09:59;;;;;;;21.40;14.63;;;;;;;8.27;66.12;98999.25;3539242;40;20514;-63
2021/05/07 02:12:27;;;;;;;18.55;14.00;;;;;;;8.26;66.32;99006.22;3536681;40;20127;-63
2021/05/07 02:14:54;;;;;;;21.50;15.70;;;;;;;8.28;66.33;98990.50;3543256;40;20070;-63
2021/05/07 02:17:21;;;;;;;22.67;14.48;;;;;;;8.30;66.13;98987.81;3538114;40;20039;-63
2021/05/07 02:19:48;;;;;;;21.13;15.48;;;;;;;8.31;66.57;98990.34;3538285;40;20043;-62
2021/05/07 02:22:14;;;;;;;23.45;15.32;;;;;;;8.33;66.51;98975.47;3537932;40;20043;-63
2021/05/07 02:24:41;;;;;;;19.98;15.73;;;;;;;8.35;66.49;98971.03;3530844;40;20039;-63
2021/05/07 02:27:09;;;;;;;20.00;14.82;;;;;;;8.36;66.42;98964.91;3537764;40;20066;-63
2021/05/07 02:29:36;;;;;;;22.17;16.23;;;;;;;8.35;66.31;98967.59;3537709;40;20501;-63
2021/05/07 02:32:02;;;;;;;20.40;14.60;;;;;;;8.35;66.40;98967.59;3537965;40;20066;-63
2021/05/07 02:34:29;;;;;;;23.77;15.32;;;;;;;8.40;66.29;98960.38;3537825;40;20695;-63
2021/05/07 02:36:56;;;;;;;24.30;15.77;;;;;;;8.48;66.28;98958.19;3538394;40;20027;-63
2021/05/07 02:39:23;;;;;;;21.90;14.90;;;;;;;8.51;66.19;98963.25;3538243;40;20039;-62
2021/05/07 02:41:50;;;;;;;20.27;16.13;;;;;;;8.49;66.26;98949.44;3521940;40;20055;-63
2021/05/07 02:44:17;;;;;;;22.33;17.10;;;;;;;8.43;66.60;98952.38;3527920;40;20039;-62
2021/05/07 02:46:44;;;;;;;21.05;16.48;;;;;;;8.38;66.73;98951.75;3518988;40;20387;-63
2021/05/07 02:49:11;;;;;;;20.48;15.52;;;;;;;8.29;66.76;98949.56;3527898;40;20408;-62
2021/05/07 02:51:38;;;;;;;22.67;16.85;;;;;;;8.19;67.36;98950.03;3528077;40;20372;-63
2021/05/07 02:54:05;;;;;;;21.33;15.73;;;;;;;8.19;67.18;98952.63;3526904;40;20307;-63
2021/05/07 02:56:32;;;;;;;26.35;16.77;;;;;;;8.13;67.55;98944.28;3529426;40;20055;-63
2021/05/07 02:58:59;;;;;;;24.50;16.83;;;;;;;8.13;67.57;98947.72;3529495;40;20059;-63
2021/05/07 03:01:26;;;;;;;23.17;15.80;;;;;;;8.10;67.56;98947.84;3527915;40;20100;-63
2021/05/07 03:03:53;;;;;;;24.30;16.92;;;;;;;8.08;67.58;98943.63;3528235;40;20050;-63
2021/05/07 03:06:20;;;;;;;24.38;16.80;;;;;;;7.96;67.99;98934.66;3528240;40;20055;-62
2021/05/07 03:08:47;;;;;;;26.08;17.63;;;;;;;7.84;68.16;98943.91;3528198;40;20135;-63
2021/05/07 03:11:14;;;;;;;24.90;17.98;;;;;;;7.82;68.50;98939.69;3528411;40;20032;-63
2021/05/07 03:13:40;;;;;;;26.27;18.13;;;;;;;7.88;68.49;98936.75;3528705;40;20404;-64
2021/05/07 03:16:07;;;;;;;22.67;16.92;;;;;;;7.94;68.46;98942.56;3528835;40;20039;-64
2021/05/07 03:18:35;;;;;;;25.40;17.65;;;;;;;7.88;68.69;98941.97;3528908;40;20039;-63
2021/05/07 03:21:01;;;;;;;25.08;16.33;;;;;;;7.85;68.96;98947.34;3528661;40;20091;-64
2021/05/07 03:23:28;;;;;;;26.10;17.63;;;;;;;7.84;68.84;98945.66;3528454;40;20448;-64
2021/05/07 03:25:55;;;;;;;26.50;18.33;;;;;;;7.85;68.99;98950.81;3530222;40;20075;-64
